Flight Track Log - Related Links

Times and Time Zones

All times are in EDT time to prevent confusion due to time zone crossing. See the AWI3780 flight status page for this flight to view local times or setup timezone preferences in your user account.

Time Position Orientation Groundspeed Altitude Reporting Facility
EDT Latitude Longitude Course Direction KTS MPH feet Rate Location/Type
Wed 04:29:26 PM 44.3689 -73.2619 195° South 246 283 7,200  Level Boston Center
Wed 04:30:00 PM 44.0823 -73.2938 196° South  Level FlightAware Approximate
Wed 04:30:26 PM 44.2997 -73.2928 198° South 275 316 9,900  Level Boston Center
Wed 04:31:00 PM 43.9864 -73.3322 196° South  Level FlightAware Approximate
Wed 04:31:26 PM 44.2264 -73.3528 210° Southwest 298 343 11,900  Level Boston Center
Wed 04:32:00 PM 43.8905 -73.3702 195° South  Level FlightAware Approximate
Wed 04:32:26 PM 44.1425 -73.4208 210° Southwest 339 390 13,700  Level Boston Center
Wed 04:33:00 PM 43.7941 -73.4058 195° South  Level FlightAware Approximate
Wed 04:33:26 PM 44.0522 -73.4914 209° Southwest 363 418 15,700  Level Boston Center
Wed 04:34:00 PM 43.6977 -73.4414 195° South  Level FlightAware Approximate
Wed 04:34:26 PM 43.9600 -73.5678 211° Southwest 377 434 17,400  Level Boston Center
Wed 04:35:26 PM 43.8653 -73.6439 210° Southwest 391 450 18,500 1,250 Climbing Boston Center
Wed 04:36:26 PM 43.7708 -73.7194 210° Southwest 396 456 19,900 1,350 Climbing Boston Center
Wed 04:37:26 PM 43.6803 -73.7922 210° Southwest 402 463 21,200 1,450 Climbing Boston Center
Wed 04:38:26 PM 43.5689 -73.8786 209° Southwest 413 475 22,800 1,950 Climbing Boston Center
Wed 04:39:26 PM 43.4719 -73.9564 210° Southwest 418 481 25,100 1,600 Climbing Boston Center
Wed 04:40:26 PM 43.3686 -74.0367 209° Southwest 403 464 26,000 450 Climbing Boston Center
Wed 04:41:26 PM 43.2633 -74.1222 211° Southwest 421 484 26,000  Level Boston Center
Wed 04:42:26 PM 43.1558 -74.2047 209° Southwest 441 507 26,000  Level Boston Center
Wed 04:43:26 PM 43.0397 -74.2953 210° Southwest 457 526 26,000  Level Boston Center
Wed 04:44:26 PM 42.9258 -74.3825 209° Southwest 474 545 26,000  Level Boston Center
Wed 04:45:26 PM 42.8200 -74.4669 210° Southwest 480 552 26,000  Level Boston Center
Wed 04:46:26 PM 42.7036 -74.5564 209° Southwest 485 558 26,000  Level Boston Center
Wed 04:47:26 PM 42.5853 -74.6481 210° Southwest 485 558 26,000  Level Boston Center
Wed 04:48:26 PM 42.4667 -74.7369 209° Southwest 490 564 26,000  Level Boston Center
Wed 04:49:26 PM 42.3481 -74.8281 210° Southwest 490 564 26,000 -650 Level Boston Center
Wed 04:50:26 PM 42.2317 -74.9189 210° Southwest 490 564 24,700 -1,800 Descending Boston Center
Wed 04:51:26 PM 42.1169 -75.0094 210° Southwest 490 564 22,400 -2,151 Descending Boston Center
Wed 04:53:05 PM 41.9467 -75.1489 211° Southwest 457 526 19,000 -1,283 Descending New York Center
Wed 04:54:05 PM 41.8417 -75.2339 211° Southwest 445 512 19,000 -694 Level New York Center
Wed 04:55:06 PM 41.7342 -75.3211 211° Southwest 431 496 17,600 -1,563 Descending New York Center
Wed 04:56:04 PM 41.6417 -75.3953 211° Southwest 410 472 15,900 -1,678 Descending New York Center
Wed 04:57:04 PM 41.5558 -75.4642 211° Southwest 384 442 14,300 -1,587 Descending New York Center
Wed 04:58:05 PM 41.4861 -75.5397 219° Southwest 366 421 12,700 -1,131 Descending New York Center
Wed 04:59:06 PM 41.4075 -75.6308 221° Southwest 355 409 12,000 -350 Descending New York Center
Wed 05:00:05 PM 41.3142 -75.6711 198° South 355 409 12,000 -50 Level New York Center
Wed 05:01:06 PM 41.2175 -75.6889 188° South 355 409 11,900 -49 Descending New York Center
Wed 05:02:07 PM 41.1217 -75.6875 179° South 355 409 11,900  Level New York Center
Wed 05:03:04 PM 41.0364 -75.6867 180° South 328 377 11,900 51 Level New York Center
Wed 05:04:04 PM 40.9508 -75.6889 181° South 309 356 12,000 50 Climbing New York Center
Wed 05:05:05 PM 40.8761 -75.6861 178° South 309 356 12,000  Level New York Center
Wed 05:06:05 PM 40.7928 -75.6856 180° South 309 356 12,000 -50 Level New York Center
Wed 05:07:06 PM 40.6989 -75.6844 179° South 309 356 11,900 -252 Descending New York Center
Wed 05:08:04 PM 40.6156 -75.6867 181° South 309 356 11,500 -400 Descending New York Center
Wed 05:09:06 PM 40.5572 -75.6333 145° Southeast 284 327 11,100 -400 Descending New York Center
Wed 05:10:04 PM 40.5108 -75.5453 125° Southeast 275 316 10,700 -508 Descending New York Center
Wed 05:11:04 PM 40.4625 -75.4519 124° Southeast 286 329 10,100 -793 Descending New York Center
Wed 05:12:05 PM 40.3981 -75.3958 146° Southeast 271 312 9,100 -992 Descending New York Center
Wed 05:13:05 PM 40.3217 -75.3772 169° South 271 312 8,100 -1,033 Descending New York Center
Wed 05:14:07 PM 40.2556 -75.3592 168° South 277 319 7,000 -1,462 Descending New York Center
Wed 05:15:04 PM 40.1728 -75.3456 173° South 277 319 5,200 -1,475 Descending New York Center
Wed 05:16:05 PM 40.0972 -75.3594 188° South 271 312 4,100 -545 Descending New York Center
Wed 05:17:05 PM 40.0258 -75.3739 189° South 266 306 4,100 -79 Level New York Center
Wed 05:17:21 PM 40.0000 -75.3667 168° South 254 292 4,000 -158 Descending Philadelphia TRACON
Wed 05:18:21 PM 39.9500 -75.3333 153° Southeast 216 249 3,900  Descending Philadelphia TRACON
Wed 05:19:21 PM 39.8833 -75.3167 169° South 221 254 4,000 -143 Climbing Philadelphia TRACON
Wed 05:20:27 PM 39.8333 -75.2833 153° Southeast 221 254 3,600 -810 Descending Philadelphia TRACON
Wed 05:21:27 PM 39.7833 -75.2500 153° Southeast 206 237 2,300 -1,300 Descending Philadelphia TRACON

Login

Don't have an account? Register now (free) for customized features, flight alerts, and more!